• pl
  • eng

Awiacja
METAR messages from military airports. 08:01 16.12.2017

METAR EPCE 160700Z 23005KT 180V260 5000 BR OVC005 01/00
Q0999 RMK 007 096 8/8 =

METAR EPDA 160700Z 22008KT 4000 -RA BR OVC007 02/01
Q1000 RMK 019 094 8/8 =

METAR EPDE 160700Z 30004KT 8000 BKN016 OVC020 01/M00 Q1001 RMK 010
090 8/5=

METAR EPIR 160700Z 24006KT 0800 FG OVC002 00/M00 Q1002 RMK 003 097
8/8 =

METAR EPKS 160700Z 26004KT 2500 BR SCT004 BKN010 00/M00 Q1003 RMK 003
096 7/4=

METAR EPLK 160700Z 25003KT 5000 BR OVC016 M01/M01 Q1002 RMK M012 098
8/8=

METAR EPLY 160700Z 30002KT 9999 SCT012 OVC020 01/M00 Q1001 RMK 011
091 8/4=

METAR EPMB 160700Z 21004KT 3000 BR BKN007 BKN010 00/M01 Q1001 RMK 002
093 7/5=

METAR EPMI 160700Z 26002KT 3500 BR BKN006 OVC010 M00/M01 Q1001 RMK
M002 093 8/5 =

METAR EPMM 160700Z 30004KT 2500 BR BKN003 OVC010 01/01 Q1001 RMK 009
098 8/6 =

METAR EPNA 160700Z NIL=

METAR EPOK 160700Z 25010KT 9999 BKN045 02/00
Q1000 RMK 016 091 7/7 =

METAR EPPR 160700Z 23002KT 9999 BKN033 01/M01 Q1000 RMK 005 092 6/6=

METAR EPPW 160700Z 26008KT 2500 BR BKN004 OVC013 00/00 Q1002 RMK 004
098 8/6 =

METAR EPSN 160700Z 21006KT 4000 BR BKN008 BKN013 M00/M01 Q1000 RMK
M002 095 7/5 =

METAR EPTM 160700Z 30004KT 9999 OVC014 M00/M02 Q1001 RMK M002 087
8/8=
Awiacja.imgw.pl jest pogodowym serwisem informacyjnym
Instytutu Meteorologii i Gospodarki Wodnej Państwowego Instytutu Badawczego.
Copyright IMGW PIB 2009-2011© Wszelkie prawa zastrzeżone.